Time;durP1;ratioP1;P1;durP2;ratioP2;P2;SDS_P1;SDS_P2;PMS_P1;PMS_P2;Temp;Humidity;BMP_temperature;BMP_pressure;BME280_temperature;BME280_humidity;BME280_pressure;Samples;Min_cycle;Max_cycle;Signal;HPM_P1;HPM_P2
2022/11/08 00:02:21;;;;;;;1.80;1.23;;;;;;;-141.59;100.00;61776.25;5083290;28;20205;-82
2022/11/08 00:04:48;;;;;;;3.30;1.30;;;;;;;-141.59;100.00;61776.25;5076318;28;20205;-82
2022/11/08 00:15:33;;;;;;;3.63;1.67;;;;;;;-141.59;100.00;61776.25;5087245;28;20295;-82
2022/11/08 00:18:00;;;;;;;1.73;1.30;;;;;;;-141.59;100.00;61776.25;5077622;28;20247;-82
2022/11/08 00:20:27;;;;;;;2.83;1.50;;;;;;;-141.59;100.00;61776.25;5080681;28;20232;-81
2022/11/08 00:22:54;;;;;;;3.03;1.10;;;;;;;-141.59;100.00;61776.25;5080797;28;20227;-81
2022/11/08 00:25:22;;;;;;;2.83;1.73;;;;;;;-141.59;100.00;61776.25;5076868;28;20201;-81
2022/11/08 00:27:49;;;;;;;2.17;1.57;;;;;;;-141.59;100.00;61776.25;5086370;28;20257;-82
2022/11/08 00:30:16;;;;;;;3.73;1.70;;;;;;;-141.59;100.00;61776.25;5088892;28;20200;-81
2022/11/08 00:32:43;;;;;;;2.30;1.50;;;;;;;-141.59;100.00;61776.25;5095760;28;20219;-81
2022/11/08 00:35:10;;;;;;;2.20;1.50;;;;;;;-141.59;100.00;61776.25;5086033;28;20295;-81
2022/11/08 00:37:37;;;;;;;3.30;1.57;;;;;;;-141.59;100.00;61776.25;5083003;28;20257;-81
2022/11/08 00:40:06;;;;;;;1.90;1.40;;;;;;;-141.59;100.00;61776.25;5086103;28;20325;-82
2022/11/08 00:42:34;;;;;;;2.00;1.60;;;;;;;-141.59;100.00;61776.25;5092294;28;20201;-82
2022/11/08 00:45:01;;;;;;;4.40;1.40;;;;;;;-141.59;100.00;61776.25;5090353;28;20201;-81
2022/11/08 00:47:28;;;;;;;2.07;1.50;;;;;;;-141.59;100.00;61776.25;5085381;28;20204;-81
2022/11/08 00:49:55;;;;;;;3.00;1.57;;;;;;;-141.59;100.00;61776.25;5088656;28;20197;-81
2022/11/08 00:52:23;;;;;;;2.27;1.47;;;;;;;-141.59;100.00;61776.25;5084745;28;20227;-81
2022/11/08 00:54:50;;;;;;;3.67;1.50;;;;;;;-141.59;100.00;61776.25;5104099;28;20200;-82
2022/11/08 00:57:17;;;;;;;2.70;1.30;;;;;;;-141.59;100.00;61776.25;5087337;28;20266;-81
2022/11/08 00:59:45;;;;;;;2.00;1.30;;;;;;;-141.59;100.00;61776.25;5087530;28;20221;-82
2022/11/08 01:02:12;;;;;;;1.87;1.20;;;;;;;-141.59;100.00;61776.25;5086615;28;20205;-81
2022/11/08 01:04:39;;;;;;;2.17;1.53;;;;;;;-141.59;100.00;61776.25;5088351;28;20197;-82
2022/11/08 01:07:06;;;;;;;2.10;1.50;;;;;;;-141.59;100.00;61776.25;5092895;28;20201;-82
2022/11/08 01:09:33;;;;;;;1.80;1.40;;;;;;;-141.59;100.00;61776.25;5104321;28;20220;-81
2022/11/08 01:12:00;;;;;;;1.53;1.37;;;;;;;-141.59;100.00;61776.25;5096014;28;20197;-81
2022/11/08 01:14:28;;;;;;;2.03;1.40;;;;;;;-141.59;100.00;61776.25;5094735;28;20211;-81
2022/11/08 01:16:56;;;;;;;2.37;1.33;;;;;;;-141.59;100.00;61776.25;5092301;28;20245;-81
2022/11/08 01:19:23;;;;;;;2.37;1.50;;;;;;;-141.59;100.00;61776.25;5090096;28;20221;-82
2022/11/08 01:21:50;;;;;;;3.53;1.50;;;;;;;-141.59;100.00;61776.25;5081682;28;20207;-82
2022/11/08 01:24:20;;;;;;;1.90;1.40;;;;;;;-141.59;100.00;61776.25;5083167;28;20202;-81
2022/11/08 01:26:50;;;;;;;1.63;1.27;;;;;;;-141.59;100.00;61776.25;5091825;28;20193;-82
2022/11/08 01:29:17;;;;;;;2.50;1.40;;;;;;;-141.59;100.00;61776.25;5094045;28;20346;-80
2022/11/08 01:31:44;;;;;;;3.23;1.60;;;;;;;-141.59;100.00;61776.25;5093260;28;20207;-82
2022/11/08 01:34:12;;;;;;;1.63;1.50;;;;;;;-141.59;100.00;61776.25;5105817;28;20216;-81
2022/11/08 01:36:39;;;;;;;2.03;1.10;;;;;;;-141.59;100.00;61776.25;5100989;28;20233;-81
2022/11/08 01:39:07;;;;;;;1.73;1.30;;;;;;;-141.59;100.00;61776.25;5092782;28;20244;-81
2022/11/08 01:41:34;;;;;;;1.30;1.10;;;;;;;-141.59;100.00;61776.25;5086873;28;20212;-82
2022/11/08 01:44:01;;;;;;;2.23;1.53;;;;;;;-141.59;100.00;61776.25;5079880;28;20244;-80
2022/11/08 01:46:35;;;;;;;2.47;1.30;;;;;;;-141.59;100.00;61776.25;5093724;28;20288;-81
2022/11/08 01:49:34;;;;;;;1.97;1.30;;;;;;;-141.59;100.00;61776.25;5088626;28;20200;-81
2022/11/08 01:52:16;;;;;;;1.93;1.30;;;;;;;-141.59;100.00;61776.25;5104827;28;20201;-81
2022/11/08 01:54:50;;;;;;;1.40;1.30;;;;;;;-141.59;100.00;61776.25;5086848;28;20261;-81
2022/11/08 01:57:21;;;;;;;2.60;1.20;;;;;;;-141.59;100.00;61776.25;5078689;28;20209;-81
2022/11/08 01:59:52;;;;;;;1.20;1.00;;;;;;;-141.59;100.00;61776.25;5088200;28;20228;-81
2022/11/08 02:02:20;;;;;;;2.23;1.03;;;;;;;-141.59;100.00;61776.25;5091093;28;20295;-81
2022/11/08 02:04:48;;;;;;;2.30;1.30;;;;;;;-141.59;100.00;61776.25;5085821;28;20204;-80
2022/11/08 02:07:17;;;;;;;2.03;1.40;;;;;;;-141.59;100.00;61776.25;5087297;28;20212;-81
2022/11/08 02:09:46;;;;;;;1.30;1.10;;;;;;;-141.59;100.00;61776.25;5088273;28;20211;-82
2022/11/08 02:12:16;;;;;;;2.83;1.30;;;;;;;-141.59;100.00;61776.25;5100765;28;20200;-81
2022/11/08 02:14:43;;;;;;;1.30;1.20;;;;;;;-141.59;100.00;61776.25;5092144;28;20208;-82
2022/11/08 02:17:11;;;;;;;1.70;1.40;;;;;;;-141.59;100.00;61776.25;5088524;28;20204;-82
2022/11/08 02:19:41;;;;;;;1.40;1.20;;;;;;;-141.59;100.00;61776.25;5085622;28;20224;-82
2022/11/08 02:22:26;;;;;;;1.17;1.03;;;;;;;-141.59;100.00;61776.25;5081509;28;20219;-82
2022/11/08 02:24:57;;;;;;;3.80;1.30;;;;;;;-141.59;100.00;61776.25;5089484;28;20193;-81
2022/11/08 02:27:24;;;;;;;1.93;1.37;;;;;;;-141.59;100.00;61776.25;5090336;28;20212;-81
2022/11/08 02:29:54;;;;;;;1.80;1.10;;;;;;;-141.59;100.00;61776.25;5094203;28;20208;-82
2022/11/08 02:32:22;;;;;;;1.77;1.30;;;;;;;-141.59;100.00;61776.25;5092948;28;20204;-81
2022/11/08 02:34:54;;;;;;;1.80;1.40;;;;;;;-141.59;100.00;61776.25;5090247;28;20204;-81
2022/11/08 02:37:23;;;;;;;1.50;1.30;;;;;;;-141.59;100.00;61776.25;5084646;28;20236;-81
2022/11/08 02:39:50;;;;;;;1.77;1.17;;;;;;;-141.59;100.00;61776.25;5088776;28;20225;-81
2022/11/08 02:42:20;;;;;;;1.47;1.10;;;;;;;-141.59;100.00;61776.25;5087430;28;20232;-80
2022/11/08 02:44:48;;;;;;;2.13;1.37;;;;;;;-141.59;100.00;61776.25;5086363;28;20254;-81
2022/11/08 02:47:15;;;;;;;1.40;1.17;;;;;;;-141.59;100.00;61776.25;5089967;28;20208;-81
2022/11/08 02:49:43;;;;;;;1.90;1.30;;;;;;;-141.59;100.00;61776.25;5091042;28;20221;-81
2022/11/08 02:52:11;;;;;;;1.30;1.20;;;;;;;-141.59;100.00;61776.25;5081755;28;20204;-81
2022/11/08 02:54:38;;;;;;;2.10;1.30;;;;;;;-141.59;100.00;61776.25;5090054;28;20205;-81
2022/11/08 02:57:06;;;;;;;1.50;1.33;;;;;;;-141.59;100.00;61776.25;5086967;28;20199;-81
2022/11/08 02:59:34;;;;;;;1.80;1.30;;;;;;;-141.59;100.00;61776.25;5085071;28;20226;-81
2022/11/08 03:02:01;;;;;;;1.33;1.20;;;;;;;-141.59;100.00;61776.25;5084746;28;20194;-82
2022/11/08 03:04:29;;;;;;;1.90;1.10;;;;;;;-141.59;100.00;61776.25;5091043;28;20241;-82
2022/11/08 03:06:55;;;;;;;2.03;1.30;;;;;;;-141.59;100.00;61776.25;5086589;28;20197;-82
2022/11/08 03:09:23;;;;;;;2.57;1.50;;;;;;;-141.59;100.00;61776.25;5083861;28;20209;-81
2022/11/08 03:11:50;;;;;;;3.53;2.10;;;;;;;-141.59;100.00;61776.25;5085358;28;20205;-81
2022/11/08 03:14:17;;;;;;;3.83;1.50;;;;;;;-141.59;100.00;61776.25;5084636;28;20277;-81
2022/11/08 03:16:45;;;;;;;1.37;1.27;;;;;;;-141.59;100.00;61776.25;5080207;28;20216;-81
2022/11/08 03:19:12;;;;;;;2.67;1.17;;;;;;;-141.59;100.00;61776.25;5073653;28;20220;-81
2022/11/08 03:21:39;;;;;;;3.20;1.13;;;;;;;-141.59;100.00;61776.25;5084114;28;20210;-82
2022/11/08 03:24:08;;;;;;;1.70;1.23;;;;;;;-141.59;100.00;61776.25;5104588;27;20197;-81
2022/11/08 03:26:35;;;;;;;1.80;1.10;;;;;;;-141.59;100.00;61776.25;5082547;28;20264;-80
2022/11/08 03:29:01;;;;;;;1.97;1.27;;;;;;;-141.59;100.00;61776.25;5090161;28;20195;-80
2022/11/08 03:31:29;;;;;;;1.20;1.10;;;;;;;-141.59;100.00;61776.25;5084378;28;20242;-81
2022/11/08 03:33:57;;;;;;;1.60;1.30;;;;;;;-141.59;100.00;61776.25;5094472;28;20199;-81
2022/11/08 03:36:25;;;;;;;3.53;1.30;;;;;;;-141.59;100.00;61776.25;5090741;28;20323;-81
2022/11/08 03:38:52;;;;;;;1.40;1.20;;;;;;;-141.59;100.00;61776.25;5091995;28;20220;-81
2022/11/08 03:41:19;;;;;;;1.47;1.23;;;;;;;-141.59;100.00;61776.25;5090455;28;20228;-81
2022/11/08 03:43:46;;;;;;;1.97;1.43;;;;;;;-141.59;100.00;61776.25;5081025;28;20208;-81
2022/11/08 03:46:13;;;;;;;1.20;1.10;;;;;;;-141.59;100.00;61776.25;5088928;28;20197;-80
2022/11/08 03:48:40;;;;;;;1.83;1.40;;;;;;;-141.59;100.00;61776.25;5088075;28;20204;-81
2022/11/08 03:51:08;;;;;;;1.70;1.33;;;;;;;-141.59;100.00;61776.25;5088484;28;20201;-82
2022/11/08 03:53:35;;;;;;;1.23;1.10;;;;;;;-141.59;100.00;61776.25;5084213;28;20200;-81
2022/11/08 03:56:02;;;;;;;1.93;1.20;;;;;;;-141.59;100.00;61776.25;5087672;28;20210;-82
2022/11/08 03:58:30;;;;;;;1.30;1.20;;;;;;;-141.59;100.00;61776.25;5084601;28;20309;-81
2022/11/08 04:00:57;;;;;;;3.87;1.20;;;;;;;-141.59;100.00;61776.25;5085598;28;20217;-81
2022/11/08 04:03:24;;;;;;;1.63;1.30;;;;;;;-141.59;100.00;61776.25;5088797;28;20270;-81
2022/11/08 04:05:51;;;;;;;1.40;1.10;;;;;;;-141.59;100.00;61776.25;5084515;28;20201;-81
2022/11/08 04:08:20;;;;;;;2.10;1.17;;;;;;;-141.59;100.00;61776.25;5086238;28;20201;-81
2022/11/08 04:10:47;;;;;;;1.40;1.20;;;;;;;-141.59;100.00;61776.25;5086167;28;20197;-81
2022/11/08 04:16:11;;;;;;;1.60;1.27;;;;;;;-141.59;100.00;61776.25;5010915;28;20206;-81
2022/11/08 04:21:23;;;;;;;1.37;1.27;;;;;;;-141.59;100.00;61776.25;5091605;28;20216;-81
2022/11/08 04:23:54;;;;;;;1.57;1.20;;;;;;;-141.59;100.00;61776.25;5086624;28;20197;-81
2022/11/08 04:26:22;;;;;;;1.83;1.50;;;;;;;-141.59;100.00;61776.25;5087604;28;20259;-81
2022/11/08 04:28:49;;;;;;;1.47;1.30;;;;;;;-141.59;100.00;61776.25;5089722;28;20198;-82
2022/11/08 04:31:18;;;;;;;1.30;1.20;;;;;;;-141.59;100.00;61776.25;5087412;28;20238;-81
2022/11/08 04:33:46;;;;;;;1.80;1.40;;;;;;;-141.59;100.00;61776.25;5090148;28;20200;-81
2022/11/08 04:36:15;;;;;;;3.27;2.37;;;;;;;-141.59;100.00;61776.25;5079317;28;20237;-82
2022/11/08 04:38:42;;;;;;;2.53;2.00;;;;;;;-141.59;100.00;61776.25;5088748;28;20217;-80
2022/11/08 04:41:13;;;;;;;1.77;1.50;;;;;;;-141.59;100.00;61776.25;5088316;28;20280;-81
2022/11/08 04:43:41;;;;;;;2.77;1.60;;;;;;;-141.59;100.00;61776.25;5075142;28;20204;-81
2022/11/08 04:46:10;;;;;;;3.00;1.50;;;;;;;-141.59;100.00;61776.25;5092750;28;20197;-81
2022/11/08 04:48:38;;;;;;;2.93;1.77;;;;;;;-141.59;100.00;61776.25;5085690;28;20296;-81
2022/11/08 04:51:07;;;;;;;3.40;1.60;;;;;;;-141.59;100.00;61776.25;5083932;28;20193;-81
2022/11/08 04:53:34;;;;;;;2.00;1.40;;;;;;;-141.59;100.00;61776.25;5087116;28;20290;-82
2022/11/08 04:56:02;;;;;;;2.43;1.50;;;;;;;-141.59;100.00;61776.25;5099890;28;20200;-81
2022/11/08 04:58:34;;;;;;;2.70;1.60;;;;;;;-141.59;100.00;61776.25;5085477;28;20328;-81
2022/11/08 05:01:01;;;;;;;3.77;1.60;;;;;;;-141.59;100.00;61776.25;5093719;28;20297;-81
2022/11/08 05:03:29;;;;;;;2.00;1.40;;;;;;;-141.59;100.00;61776.25;5077511;28;20220;-81
2022/11/08 05:05:56;;;;;;;1.73;1.50;;;;;;;-141.59;100.00;61776.25;5083141;28;20213;-81
2022/11/08 05:08:23;;;;;;;2.43;1.83;;;;;;;-141.59;100.00;61776.25;5084254;28;20208;-81
2022/11/08 05:10:50;;;;;;;3.27;1.93;;;;;;;-141.59;100.00;61776.25;5084609;28;20204;-81
2022/11/08 05:13:17;;;;;;;3.87;1.57;;;;;;;-141.59;100.00;61776.25;5084517;28;20197;-81
2022/11/08 05:15:45;;;;;;;6.40;1.67;;;;;;;-141.59;100.00;61776.25;5090549;28;20232;-81
2022/11/08 05:18:12;;;;;;;1.70;1.33;;;;;;;-141.59;100.00;61776.25;5083136;28;20197;-82
2022/11/08 05:23:25;;;;;;;2.17;1.70;;;;;;;-141.59;100.00;61776.25;5085446;28;20212;-82
2022/11/08 05:25:53;;;;;;;2.53;1.80;;;;;;;-141.59;100.00;61776.25;5087290;28;20193;-82
2022/11/08 05:28:29;;;;;;;7.00;3.20;;;;;;;-141.59;100.00;61776.25;5091814;28;20214;-82
2022/11/08 05:30:58;;;;;;;3.57;2.47;;;;;;;-141.59;100.00;61776.25;5092624;28;20278;-81
2022/11/08 05:33:25;;;;;;;5.50;2.60;;;;;;;-141.59;100.00;61776.25;5097755;28;20286;-81
2022/11/08 05:35:53;;;;;;;4.73;3.13;;;;;;;-141.59;100.00;61776.25;5083689;28;20240;-81
2022/11/08 05:38:20;;;;;;;4.60;2.53;;;;;;;-141.59;100.00;61776.25;5080590;28;20197;-81
2022/11/08 05:40:47;;;;;;;4.20;2.87;;;;;;;-141.59;100.00;61776.25;5103748;28;20210;-81
2022/11/08 05:43:15;;;;;;;4.43;2.80;;;;;;;-141.59;100.00;61776.25;5089849;28;20201;-81
2022/11/08 05:45:42;;;;;;;2.67;2.10;;;;;;;-141.59;100.00;61776.25;5095208;28;20201;-81
2022/11/08 05:48:10;;;;;;;2.80;1.80;;;;;;;-141.59;100.00;61776.25;5092265;28;20196;-81
2022/11/08 05:50:37;;;;;;;2.27;1.90;;;;;;;-141.59;100.00;61776.25;5083014;28;20201;-81
2022/11/08 05:53:11;;;;;;;2.87;1.90;;;;;;;-141.59;100.00;61776.25;5087123;28;20201;-82
2022/11/08 05:55:38;;;;;;;3.80;2.13;;;;;;;-141.59;100.00;61776.25;5085813;28;20214;-81
2022/11/08 05:58:11;;;;;;;3.17;2.07;;;;;;;-141.59;100.00;61776.25;5090038;28;20189;-81
2022/11/08 06:00:38;;;;;;;4.30;1.93;;;;;;;-141.59;100.00;61776.25;5089486;28;20221;-81
2022/11/08 06:03:10;;;;;;;3.80;1.50;;;;;;;-141.59;100.00;61776.25;5082594;28;20250;-81
2022/11/08 06:05:37;;;;;;;2.40;1.77;;;;;;;-141.59;100.00;61776.25;5085223;28;20265;-81
2022/11/08 06:08:07;;;;;;;2.10;1.57;;;;;;;-141.59;100.00;61776.25;5084653;28;20197;-82
2022/11/08 06:10:34;;;;;;;2.10;1.47;;;;;;;-141.59;100.00;61776.25;5083097;28;20208;-81
2022/11/08 06:13:01;;;;;;;1.60;1.40;;;;;;;-141.59;100.00;61776.25;5086356;28;20193;-81
2022/11/08 06:15:28;;;;;;;3.03;1.90;;;;;;;-141.59;100.00;61776.25;5080910;28;20205;-82
2022/11/08 06:17:55;;;;;;;2.70;2.30;;;;;;;-141.59;100.00;61776.25;5088401;28;20196;-81
2022/11/08 06:20:24;;;;;;;1.23;1.13;;;;;;;-141.59;100.00;61776.25;5084064;28;20243;-82
2022/11/08 06:22:51;;;;;;;3.57;2.87;;;;;;;-141.59;100.00;61776.25;5080548;28;20204;-81
2022/11/08 06:25:18;;;;;;;2.50;1.73;;;;;;;-141.59;100.00;61776.25;5088585;28;20232;-82
2022/11/08 06:27:45;;;;;;;3.90;2.10;;;;;;;-141.59;100.00;61776.25;5085937;28;20212;-81
2022/11/08 06:30:13;;;;;;;2.33;1.40;;;;;;;-141.59;100.00;61776.25;5088443;28;20203;-82
2022/11/08 06:32:41;;;;;;;3.70;0.90;;;;;;;-141.59;100.00;61776.25;5083559;28;20212;-81
2022/11/08 06:35:08;;;;;;;1.33;1.20;;;;;;;-141.59;100.00;61776.25;5073849;28;20236;-82
2022/11/08 06:37:38;;;;;;;1.30;1.20;;;;;;;-141.59;100.00;61776.25;5086682;28;20225;-83
2022/11/08 06:40:10;;;;;;;1.17;0.87;;;;;;;-141.59;100.00;61776.25;5086737;28;20234;-81
2022/11/08 06:42:37;;;;;;;1.27;0.80;;;;;;;-141.59;100.00;61776.25;5081450;28;20197;-81
2022/11/08 06:45:16;;;;;;;0.70;0.70;;;;;;;-141.59;100.00;61776.25;5085040;28;20204;-82
2022/11/08 06:47:43;;;;;;;1.60;1.10;;;;;;;-141.59;100.00;61776.25;5081196;28;20202;-81
2022/11/08 06:50:10;;;;;;;3.63;2.67;;;;;;;-141.59;100.00;61776.25;5074723;28;20205;-82
2022/11/08 06:52:39;;;;;;;13.73;9.47;;;;;;;-141.59;100.00;61776.25;5089028;28;20201;-81
2022/11/08 06:55:09;;;;;;;9.13;6.47;;;;;;;-141.59;100.00;61776.25;5078427;28;20257;-82
2022/11/08 06:57:36;;;;;;;6.63;5.60;;;;;;;-141.59;100.00;61776.25;5083482;28;20256;-81
2022/11/08 07:00:05;;;;;;;5.40;2.57;;;;;;;-141.59;100.00;61776.25;5078525;28;20198;-82
2022/11/08 07:02:32;;;;;;;3.40;2.33;;;;;;;-141.59;100.00;61776.25;5077812;28;20205;-81
2022/11/08 07:04:59;;;;;;;4.67;2.30;;;;;;;-141.59;100.00;61776.25;5085886;28;20193;-81
2022/11/08 07:07:26;;;;;;;4.27;2.80;;;;;;;-141.59;100.00;61776.25;5078994;28;20200;-81
2022/11/08 07:09:54;;;;;;;4.53;2.70;;;;;;;-141.59;100.00;61776.25;5084374;28;20211;-81
2022/11/08 07:12:21;;;;;;;5.37;2.80;;;;;;;-141.59;100.00;61776.25;5083652;28;20196;-81
2022/11/08 07:14:48;;;;;;;5.53;2.97;;;;;;;-141.59;100.00;61776.25;5081964;28;20211;-81
2022/11/08 07:17:15;;;;;;;6.13;2.50;;;;;;;-141.59;100.00;61776.25;5083048;28;20246;-82
2022/11/08 07:19:43;;;;;;;7.53;2.60;;;;;;;-141.59;100.00;61776.25;5085227;28;20225;-81
2022/11/08 07:22:10;;;;;;;3.17;2.60;;;;;;;-141.59;100.00;61776.25;5083318;28;20335;-82
2022/11/08 07:24:37;;;;;;;4.10;2.40;;;;;;;-141.59;100.00;61776.25;5080667;28;20223;-81
2022/11/08 07:27:06;;;;;;;4.33;2.50;;;;;;;-141.59;100.00;61776.25;5087163;28;20197;-81
2022/11/08 07:29:33;;;;;;;4.33;2.50;;;;;;;-141.59;100.00;61776.25;5081024;28;20254;-80
2022/11/08 07:32:01;;;;;;;2.87;2.13;;;;;;;-141.59;100.00;61776.25;5086206;28;20237;-81
2022/11/08 07:34:28;;;;;;;6.43;2.77;;;;;;;-141.59;100.00;61776.25;5089294;28;20197;-81
2022/11/08 07:36:55;;;;;;;3.57;2.10;;;;;;;-141.59;100.00;61776.25;5080844;28;20236;-80
2022/11/08 07:39:21;;;;;;;4.63;1.87;;;;;;;-141.59;100.00;61776.25;5077941;28;20209;-80
2022/11/08 07:41:48;;;;;;;3.43;2.20;;;;;;;-141.59;100.00;61776.25;5077609;28;20213;-81
2022/11/08 07:44:17;;;;;;;2.97;2.03;;;;;;;-141.59;100.00;61776.25;5085490;28;20212;-81
2022/11/08 07:46:45;;;;;;;5.07;2.00;;;;;;;-141.59;100.00;61776.25;5074848;28;20213;-81
2022/11/08 07:49:12;;;;;;;4.27;2.00;;;;;;;-141.59;100.00;61776.25;5078925;28;20189;-81
2022/11/08 07:51:39;;;;;;;2.53;1.60;;;;;;;-141.59;100.00;61776.25;5081270;28;20192;-81
2022/11/08 07:54:09;;;;;;;2.53;2.00;;;;;;;-141.59;100.00;61776.25;5080993;28;20208;-80
2022/11/08 07:56:36;;;;;;;3.03;2.20;;;;;;;-141.59;100.00;61776.25;5076369;28;20214;-80
2022/11/08 07:59:03;;;;;;;2.87;1.80;;;;;;;-141.59;100.00;61776.25;5080028;28;20208;-80
2022/11/08 08:01:31;;;;;;;3.23;2.00;;;;;;;-141.59;100.00;61776.25;5084793;28;20225;-82
2022/11/08 08:04:01;;;;;;;3.17;1.93;;;;;;;-141.59;100.00;61776.25;5083592;28;20207;-85
2022/11/08 08:06:28;;;;;;;5.40;2.30;;;;;;;-141.59;100.00;61776.25;5099825;28;20213;-86
2022/11/08 08:08:56;;;;;;;5.40;3.10;;;;;;;-141.59;100.00;61776.25;5084775;28;20204;-87
2022/11/08 08:11:23;;;;;;;3.30;1.70;;;;;;;-141.59;100.00;61776.25;5077965;28;20307;-83
2022/11/08 08:13:50;;;;;;;2.20;1.93;;;;;;;-141.59;100.00;61776.25;5088065;28;20193;-85
2022/11/08 08:16:17;;;;;;;2.00;1.80;;;;;;;-141.59;100.00;61776.25;5091136;28;20246;-84
2022/11/08 08:18:45;;;;;;;2.23;1.73;;;;;;;-141.59;100.00;61776.25;5086016;28;20223;-85
2022/11/08 08:21:12;;;;;;;1.57;1.47;;;;;;;-141.59;100.00;61776.25;5083177;28;20224;-85
2022/11/08 08:23:39;;;;;;;2.17;1.73;;;;;;;-141.59;100.00;61776.25;5080393;28;20201;-85
2022/11/08 08:26:09;;;;;;;5.97;1.60;;;;;;;-141.59;100.00;61776.25;5074257;28;20216;-85
2022/11/08 08:28:37;;;;;;;3.90;1.67;;;;;;;-141.59;100.00;61776.25;5085771;28;20197;-84
2022/11/08 08:31:07;;;;;;;3.10;2.10;;;;;;;-141.59;100.00;61776.25;5086798;28;20193;-85
2022/11/08 08:33:36;;;;;;;4.83;2.00;;;;;;;-141.59;100.00;61776.25;5085618;28;20211;-85
2022/11/08 08:36:05;;;;;;;3.63;1.90;;;;;;;-141.59;100.00;61776.25;5076742;28;20224;-84
2022/11/08 08:38:33;;;;;;;3.40;2.10;;;;;;;-141.59;100.00;61776.25;5079713;28;20207;-85
2022/11/08 08:41:03;;;;;;;4.73;2.00;;;;;;;-141.59;100.00;61776.25;5088767;28;20213;-84
2022/11/08 08:43:31;;;;;;;2.87;2.00;;;;;;;-141.59;100.00;61776.25;5105537;28;20211;-86
2022/11/08 08:45:59;;;;;;;3.90;1.90;;;;;;;-141.59;100.00;61776.25;5095084;28;20239;-85
2022/11/08 08:48:26;;;;;;;2.93;2.27;;;;;;;-141.59;100.00;61776.25;5090125;28;20216;-86
2022/11/08 08:50:53;;;;;;;3.17;1.90;;;;;;;-141.59;100.00;61776.25;5086881;28;20211;-84
2022/11/08 08:53:25;;;;;;;2.67;1.80;;;;;;;-141.59;100.00;61776.25;5086698;28;20300;-85
2022/11/08 08:55:52;;;;;;;2.43;2.10;;;;;;;-141.59;100.00;61776.25;5091060;28;20189;-84
2022/11/08 08:58:19;;;;;;;2.77;1.77;;;;;;;-141.59;100.00;61776.25;5094887;28;20279;-84
2022/11/08 09:00:46;;;;;;;5.50;2.30;;;;;;;-141.59;100.00;61776.25;5086855;28;20232;-84
2022/11/08 09:03:14;;;;;;;14.07;9.80;;;;;;;-141.59;100.00;61776.25;5086769;28;20201;-85
2022/11/08 09:05:42;;;;;;;4.97;3.30;;;;;;;-141.59;100.00;61776.25;5081775;28;20297;-85
2022/11/08 09:08:11;;;;;;;4.83;2.13;;;;;;;-141.59;100.00;61776.25;5086129;28;20299;-85
2022/11/08 09:10:39;;;;;;;5.03;1.97;;;;;;;-141.59;100.00;61776.25;5086521;28;20201;-86
2022/11/08 09:13:10;;;;;;;5.20;2.20;;;;;;;-141.59;100.00;61776.25;5086827;28;20216;-85
2022/11/08 09:15:38;;;;;;;4.53;2.03;;;;;;;-141.59;100.00;61776.25;5084166;28;20208;-85
2022/11/08 09:18:05;;;;;;;5.67;4.73;;;;;;;-141.59;100.00;61776.25;5086556;28;20207;-84
2022/11/08 09:20:32;;;;;;;2.57;2.23;;;;;;;-141.59;100.00;61776.25;5086095;28;20211;-85
2022/11/08 09:23:01;;;;;;;2.67;2.00;;;;;;;-141.59;100.00;61776.25;5091800;28;20221;-85
2022/11/08 09:25:29;;;;;;;2.80;1.80;;;;;;;-141.59;100.00;61776.25;5092998;28;20223;-85
2022/11/08 09:27:57;;;;;;;2.90;1.80;;;;;;;-141.59;100.00;61776.25;5089269;28;20295;-85
2022/11/08 09:30:25;;;;;;;1.73;1.60;;;;;;;-141.59;100.00;61776.25;5085164;28;20245;-84
2022/11/08 09:32:53;;;;;;;2.37;1.80;;;;;;;-141.59;100.00;61776.25;5089206;28;20200;-84
2022/11/08 09:35:21;;;;;;;2.00;1.60;;;;;;;-141.59;100.00;61776.25;5087114;28;20234;-84
2022/11/08 09:37:48;;;;;;;4.03;2.00;;;;;;;-141.59;100.00;61776.25;5094955;28;20216;-84
2022/11/08 09:40:17;;;;;;;5.37;1.90;;;;;;;-141.59;100.00;61776.25;5091534;28;20201;-84
2022/11/08 09:42:57;;;;;;;8.73;6.67;;;;;;;-141.59;100.00;61776.25;5092073;28;20221;-84
2022/11/08 09:45:29;;;;;;;8.03;5.97;;;;;;;-141.59;100.00;61776.25;5091236;28;20205;-85
2022/11/08 09:47:59;;;;;;;5.73;2.77;;;;;;;-141.59;100.00;61776.25;5089041;28;20224;-85
2022/11/08 09:50:31;;;;;;;4.47;1.80;;;;;;;-141.59;100.00;61776.25;5090401;28;20220;-84
2022/11/08 09:53:07;;;;;;;2.03;1.77;;;;;;;-141.59;100.00;61776.25;5091472;28;20209;-84
2022/11/08 09:55:38;;;;;;;7.23;1.90;;;;;;;-141.59;100.00;61776.25;5105477;28;20228;-84
2022/11/08 09:58:18;;;;;;;3.77;1.70;;;;;;;-141.59;100.00;61776.25;5089150;28;20229;-84
2022/11/08 10:00:49;;;;;;;1.90;1.60;;;;;;;-141.59;100.00;61776.25;5084909;28;20228;-84
2022/11/08 10:03:18;;;;;;;2.10;1.73;;;;;;;-141.59;100.00;61776.25;5088935;28;20250;-84
2022/11/08 10:06:24;;;;;;;1.50;1.40;;;;;;;-141.59;100.00;61776.25;5089526;28;20205;-84
2022/11/08 10:09:03;;;;;;;2.50;2.00;;;;;;;-141.59;100.00;61776.25;5051852;28;20267;-86
2022/11/08 10:11:47;;;;;;;1.93;1.73;;;;;;;-141.59;100.00;61776.25;5074250;28;20197;-86
2022/11/08 10:14:28;;;;;;;6.50;3.83;;;;;;;-141.59;100.00;61776.25;5089996;28;20217;-86
2022/11/08 10:17:15;;;;;;;3.00;2.30;;;;;;;-141.59;100.00;61776.25;5089199;28;20254;-86
2022/11/08 10:19:54;;;;;;;2.80;1.80;;;;;;;-141.59;100.00;61776.25;5094982;28;20241;-85
2022/11/08 10:22:30;;;;;;;2.23;1.80;;;;;;;-141.59;100.00;61776.25;5080251;28;20311;-85
2022/11/08 10:25:01;;;;;;;2.07;1.60;;;;;;;-141.59;100.00;61776.25;5089394;28;20208;-85
2022/11/08 10:27:36;;;;;;;2.20;1.60;;;;;;;-141.59;100.00;61776.25;5089530;28;20200;-86
2022/11/08 10:30:07;;;;;;;3.90;1.70;;;;;;;-141.59;100.00;61776.25;5088168;28;20200;-86
2022/11/08 10:32:36;;;;;;;2.83;2.03;;;;;;;-141.59;100.00;61776.25;5089780;28;20350;-85
2022/11/08 10:35:17;;;;;;;3.93;1.80;;;;;;;-141.59;100.00;61776.25;5091669;28;20224;-85
2022/11/08 10:37:51;;;;;;;2.63;1.80;;;;;;;-141.59;100.00;61776.25;5089704;28;20350;-86
2022/11/08 10:40:28;;;;;;;3.00;1.70;;;;;;;-141.59;100.00;61776.25;5087448;28;20247;-86
2022/11/08 10:43:00;;;;;;;3.23;1.67;;;;;;;-141.59;100.00;61776.25;5088023;28;20232;-86
2022/11/08 10:45:28;;;;;;;3.20;1.80;;;;;;;-141.59;100.00;61776.25;5089630;28;20209;-86
2022/11/08 10:48:00;;;;;;;2.80;1.87;;;;;;;-141.59;100.00;61776.25;5088998;28;20201;-86
2022/11/08 10:50:37;;;;;;;2.80;1.70;;;;;;;-141.59;100.00;61776.25;5080234;28;20269;-85
2022/11/08 10:53:06;;;;;;;7.43;4.43;;;;;;;-141.59;100.00;61776.25;5089700;28;20196;-85
2022/11/08 10:55:37;;;;;;;2.87;1.90;;;;;;;-141.59;100.00;61776.25;5089100;28;20211;-85
2022/11/08 10:58:04;;;;;;;4.20;2.37;;;;;;;-141.59;100.00;61776.25;5091381;28;20227;-85
2022/11/08 11:00:33;;;;;;;3.40;1.70;;;;;;;-141.59;100.00;61776.25;5089993;28;20201;-85
2022/11/08 11:03:16;;;;;;;3.27;1.50;;;;;;;-141.59;100.00;61776.25;5085407;28;20312;-86
2022/11/08 11:05:54;;;;;;;1.93;1.73;;;;;;;-141.59;100.00;61776.25;5072360;28;20209;-85
2022/11/08 11:08:23;;;;;;;2.23;1.70;;;;;;;-141.59;100.00;61776.25;5071851;28;20214;-86
2022/11/08 11:10:50;;;;;;;2.23;1.50;;;;;;;-141.59;100.00;61776.25;5089471;28;20201;-86
2022/11/08 11:13:22;;;;;;;2.57;1.83;;;;;;;-141.59;100.00;61776.25;5085673;28;20212;-86
2022/11/08 11:15:50;;;;;;;2.80;1.60;;;;;;;-141.59;100.00;61776.25;5087429;28;20220;-86
2022/11/08 11:18:28;;;;;;;2.60;1.70;;;;;;;-141.59;100.00;61776.25;5085203;28;20266;-86
2022/11/08 11:21:08;;;;;;;3.90;1.60;;;;;;;-141.59;100.00;61776.25;5104335;28;20204;-80
2022/11/08 11:23:39;;;;;;;2.47;1.50;;;;;;;-141.59;100.00;61776.25;5082488;28;20224;-81
2022/11/08 11:26:10;;;;;;;2.77;1.80;;;;;;;-141.59;100.00;61776.25;5084640;28;20241;-81
2022/11/08 11:28:37;;;;;;;2.27;1.80;;;;;;;-141.59;100.00;61776.25;5096711;28;20205;-81
2022/11/08 11:31:16;;;;;;;2.77;1.63;;;;;;;-141.59;100.00;61776.25;5087163;28;20213;-81
2022/11/08 11:33:46;;;;;;;3.10;1.60;;;;;;;-141.59;100.00;61776.25;5092977;28;20204;-81
2022/11/08 11:36:16;;;;;;;3.03;1.80;;;;;;;-141.59;100.00;61776.25;5094408;28;20263;-81